createdAt,value
2023-05-19T00:00:28.035Z,84.36
2023-05-19T00:01:28.026Z,84.88
2023-05-19T00:02:28.832Z,84.88
2023-05-19T00:03:28.128Z,85.28
2023-05-19T00:04:27.989Z,85.39
2023-05-19T00:05:28.066Z,84.88
2023-05-19T00:06:27.985Z,85.39
2023-05-19T00:07:27.950Z,85.39
2023-05-19T00:08:27.969Z,85.18
2023-05-19T00:09:27.930Z,85.18
2023-05-19T00:10:27.924Z,85.70
2023-05-19T00:11:27.927Z,85.70
2023-05-19T00:12:27.896Z,85.94
2023-05-19T00:13:27.919Z,86.05
2023-05-19T00:14:27.873Z,86.05
2023-05-19T00:15:27.853Z,86.15
2023-05-19T00:16:27.987Z,86.05
2023-05-19T00:17:27.878Z,86.05
2023-05-19T00:18:27.852Z,86.05
2023-05-19T00:19:28.002Z,85.94
2023-05-19T00:20:27.809Z,86.25
2023-05-19T00:21:27.783Z,86.15
2023-05-19T00:22:27.779Z,85.74
2023-05-19T00:23:27.780Z,86.15
2023-05-19T00:24:27.773Z,86.25
2023-05-19T00:25:27.774Z,86.70
2023-05-19T00:26:27.736Z,86.70
2023-05-19T00:27:27.720Z,86.80
2023-05-19T00:28:27.721Z,86.19
2023-05-19T00:29:27.735Z,85.88
2023-05-19T00:30:27.689Z,85.78
2023-05-19T00:31:27.766Z,86.40
2023-05-19T00:32:27.690Z,86.19
2023-05-19T00:33:27.706Z,86.23
2023-05-19T00:34:27.669Z,86.64
2023-05-19T00:35:27.625Z,86.50
2023-05-19T00:36:27.624Z,86.33
2023-05-19T00:37:27.613Z,86.13
2023-05-19T00:38:27.598Z,86.43
2023-05-19T00:39:27.606Z,86.85
2023-05-19T00:40:27.614Z,86.64
2023-05-19T00:41:27.578Z,86.95
2023-05-19T00:42:27.554Z,87.05
2023-05-19T00:43:27.540Z,86.43
2023-05-19T00:44:27.534Z,85.82
2023-05-19T00:45:27.523Z,86.33
2023-05-19T00:46:27.557Z,86.88
2023-05-19T00:47:27.507Z,86.88
2023-05-19T00:48:27.488Z,86.58
2023-05-19T00:49:27.506Z,87.71
2023-05-19T00:50:27.458Z,87.60
2023-05-19T00:51:27.477Z,87.19
2023-05-19T00:52:27.442Z,87.30
2023-05-19T00:53:39.419Z,87.60
2023-05-19T00:54:27.440Z,87.60
2023-05-19T00:55:27.398Z,87.71
2023-05-19T00:56:27.425Z,86.79
2023-05-19T00:57:27.393Z,87.51
2023-05-19T00:58:27.373Z,86.99
2023-05-19T00:59:27.389Z,87.40
2023-05-19T01:00:27.354Z,87.30
2023-05-19T01:01:27.427Z,87.81
2023-05-19T01:02:27.416Z,87.40
2023-05-19T01:03:27.404Z,87.81
2023-05-19T01:04:27.301Z,88.02
2023-05-19T01:05:27.289Z,88.12
2023-05-19T01:06:27.274Z,87.98
2023-05-19T01:07:27.286Z,88.53
2023-05-19T01:08:27.271Z,88.64
2023-05-19T01:09:27.239Z,89.05
2023-05-19T01:10:27.232Z,88.74
2023-05-19T01:11:27.218Z,88.33
2023-05-19T01:12:27.253Z,87.98
2023-05-19T01:13:27.207Z,87.81
2023-05-19T01:14:27.204Z,88.12
2023-05-19T01:15:27.193Z,88.33
2023-05-19T01:16:27.178Z,88.23
2023-05-19T01:17:27.191Z,87.87
2023-05-19T01:18:27.154Z,88.64
2023-05-19T01:19:27.165Z,88.49
2023-05-19T01:20:27.107Z,88.74
2023-05-19T01:21:27.111Z,88.59
2023-05-19T01:22:27.091Z,88.59
2023-05-19T01:23:27.082Z,88.59
2023-05-19T01:24:27.081Z,88.64
2023-05-19T01:25:27.059Z,88.80
2023-05-19T01:26:27.038Z,88.74
2023-05-19T01:27:27.047Z,89.52
2023-05-19T01:28:27.039Z,89.11
2023-05-19T01:29:27.058Z,89.42
2023-05-19T01:30:27.017Z,89.73
2023-05-19T01:31:27.004Z,89.11
2023-05-19T01:32:27.010Z,89.42
2023-05-19T01:33:26.966Z,89.31
2023-05-19T01:34:26.963Z,89.62
2023-05-19T01:35:26.944Z,89.94
2023-05-19T01:36:26.934Z,89.83
2023-05-19T01:37:26.924Z,89.83
2023-05-19T01:38:26.901Z,89.83
2023-05-19T01:39:26.917Z,89.73
2023-05-19T01:40:26.904Z,89.83
2023-05-19T01:41:26.874Z,89.52
2023-05-19T01:42:26.862Z,89.83
2023-05-19T01:43:26.871Z,89.83
2023-05-19T01:44:26.984Z,89.73
2023-05-19T01:45:26.852Z,89.94
2023-05-19T01:46:26.889Z,90.34
2023-05-19T01:47:26.826Z,90.34
2023-05-19T01:48:26.787Z,89.52
2023-05-19T01:49:26.800Z,89.62
2023-05-19T01:50:26.782Z,89.62
2023-05-19T01:51:26.764Z,89.42
2023-05-19T01:52:26.747Z,89.42
2023-05-19T01:53:26.747Z,88.95
2023-05-19T01:54:26.739Z,89.42
2023-05-19T01:55:26.751Z,89.83
2023-05-19T01:56:26.697Z,89.83
2023-05-19T01:57:26.718Z,89.83
2023-05-19T01:58:26.677Z,89.73
2023-05-19T01:59:26.678Z,90.14
2023-05-19T02:00:26.713Z,90.55
2023-05-19T02:01:26.694Z,89.83
2023-05-19T02:02:26.681Z,89.83
2023-05-19T02:03:26.657Z,90.03
2023-05-19T02:04:26.658Z,89.87
2023-05-19T02:05:26.607Z,89.83
2023-05-19T02:06:26.585Z,89.42
2023-05-19T02:07:26.599Z,89.62
2023-05-19T02:08:26.594Z,89.77
2023-05-19T02:09:26.560Z,89.73
2023-05-19T02:10:26.541Z,89.56
2023-05-19T02:11:26.534Z,88.74
2023-05-19T02:12:26.528Z,89.46
2023-05-19T02:13:26.534Z,89.67
2023-05-19T02:14:26.734Z,89.46
2023-05-19T02:15:26.498Z,89.46
2023-05-19T02:16:26.574Z,89.87
2023-05-19T02:17:26.485Z,89.67
2023-05-19T02:18:26.482Z,89.46
2023-05-19T02:19:26.475Z,89.46
2023-05-19T02:20:26.420Z,89.25
2023-05-19T02:21:26.438Z,89.71
2023-05-19T02:22:26.395Z,89.71
2023-05-19T02:23:26.408Z,89.19
2023-05-19T02:24:26.394Z,87.85
2023-05-19T02:25:26.375Z,88.41
2023-05-19T02:26:26.379Z,87.27
2023-05-19T02:27:26.365Z,86.97
2023-05-19T02:28:26.331Z,87.27
2023-05-19T02:29:26.331Z,87.99
2023-05-19T02:30:26.307Z,87.83
2023-05-19T02:31:26.320Z,88.04
2023-05-19T02:32:26.382Z,88.04
2023-05-19T02:33:26.292Z,87.83
2023-05-19T02:34:26.288Z,88.04
2023-05-19T02:35:26.273Z,88.14
2023-05-19T02:36:26.234Z,88.18
2023-05-19T02:37:26.227Z,87.83
2023-05-19T02:38:26.211Z,88.08
2023-05-19T02:39:26.207Z,88.39
2023-05-19T02:40:26.208Z,88.18
2023-05-19T02:41:26.179Z,88.08
2023-05-19T02:42:26.203Z,88.95
2023-05-19T02:43:26.170Z,88.84
2023-05-19T02:44:26.165Z,88.84
2023-05-19T02:45:26.138Z,88.84
2023-05-19T02:46:26.185Z,88.95
2023-05-19T02:47:26.167Z,89.05
2023-05-19T02:48:26.297Z,89.25
2023-05-19T02:49:26.093Z,89.46
2023-05-19T02:50:26.074Z,88.95
2023-05-19T02:51:26.091Z,89.71
2023-05-19T02:52:26.050Z,89.71
2023-05-19T02:53:26.054Z,89.92
2023-05-19T02:54:26.034Z,89.92
2023-05-19T02:55:26.024Z,89.92
2023-05-19T02:56:26.021Z,89.61
2023-05-19T02:57:26.000Z,89.71
2023-05-19T02:58:26.019Z,89.50
2023-05-19T02:59:25.975Z,90.12
2023-05-19T03:00:25.969Z,90.12
2023-05-19T03:01:25.966Z,90.39
2023-05-19T03:02:26.003Z,91.16
2023-05-19T03:03:26.035Z,90.12
2023-05-19T03:04:25.928Z,90.43
2023-05-19T03:05:25.910Z,90.53
2023-05-19T03:06:25.883Z,90.59
2023-05-19T03:07:25.903Z,90.84
2023-05-19T03:08:25.881Z,90.64
2023-05-19T03:09:25.879Z,90.74
2023-05-19T03:10:25.855Z,90.64
2023-05-19T03:11:25.861Z,90.64
2023-05-19T03:12:25.846Z,90.33
2023-05-19T03:13:25.817Z,90.68
2023-05-19T03:14:25.797Z,90.43
2023-05-19T03:15:25.796Z,90.64
2023-05-19T03:16:25.826Z,90.64
2023-05-19T03:17:25.901Z,90.74
2023-05-19T03:18:25.792Z,90.53
2023-05-19T03:19:25.813Z,91.05
2023-05-19T03:20:25.762Z,91.56
2023-05-19T03:21:25.798Z,91.46
2023-05-19T03:22:25.711Z,91.16
2023-05-19T03:23:25.706Z,91.16
2023-05-19T03:24:25.713Z,91.46
2023-05-19T03:25:25.682Z,91.16
2023-05-19T03:26:25.672Z,91.36
2023-05-19T03:27:25.659Z,91.05
2023-05-19T03:28:25.644Z,90.28
2023-05-19T03:29:25.662Z,90.53
2023-05-19T03:30:25.627Z,91.11
2023-05-19T03:31:25.619Z,91.42
2023-05-19T03:32:25.668Z,91.22
2023-05-19T03:33:25.655Z,91.01
2023-05-19T03:34:25.602Z,91.22
2023-05-19T03:35:25.571Z,91.11
2023-05-19T03:36:25.725Z,91.01
2023-05-19T03:37:25.550Z,90.70
2023-05-19T03:38:25.529Z,91.11
2023-05-19T03:39:25.534Z,91.42
2023-05-19T03:40:25.509Z,91.22
2023-05-19T03:41:25.528Z,90.91
2023-05-19T03:42:25.485Z,90.59
2023-05-19T03:43:25.504Z,91.63
2023-05-19T03:44:25.467Z,90.91
2023-05-19T03:45:25.465Z,91.52
2023-05-19T03:46:25.516Z,91.42
2023-05-19T03:47:25.541Z,91.28
2023-05-19T03:48:25.435Z,91.63
2023-05-19T03:49:25.422Z,91.38
2023-05-19T03:50:25.398Z,91.28
2023-05-19T03:51:25.397Z,91.28
2023-05-19T03:52:25.412Z,91.28
2023-05-19T03:53:25.365Z,91.69
2023-05-19T03:54:25.350Z,91.58
2023-05-19T03:55:26.963Z,91.07
2023-05-19T03:56:25.334Z,91.48
2023-05-19T03:57:25.347Z,91.28
2023-05-19T03:58:25.302Z,91.58
2023-05-19T03:59:25.316Z,90.61
2023-05-19T04:00:25.285Z,91.07
2023-05-19T04:01:25.281Z,91.38
2023-05-19T04:02:25.377Z,91.07
2023-05-19T04:03:25.323Z,91.28
2023-05-19T04:04:25.327Z,91.17
2023-05-19T04:05:25.238Z,91.07
2023-05-19T04:06:25.229Z,91.17
2023-05-19T04:07:25.224Z,90.97
2023-05-19T04:08:26.254Z,91.28
2023-05-19T04:09:25.182Z,90.97
2023-05-19T04:10:25.166Z,90.61
2023-05-19T04:11:25.255Z,90.97
2023-05-19T04:12:25.151Z,90.55
2023-05-19T04:13:25.136Z,91.17
2023-05-19T04:14:25.123Z,91.03
2023-05-19T04:15:25.128Z,91.03
2023-05-19T04:16:25.307Z,91.34
2023-05-19T04:17:25.167Z,91.34
2023-05-19T04:18:26.301Z,91.34
2023-05-19T04:19:25.115Z,91.13
2023-05-19T04:20:25.048Z,90.61
2023-05-19T04:21:25.070Z,91.13
2023-05-19T04:22:25.024Z,91.34
2023-05-19T04:23:25.025Z,91.03
2023-05-19T04:24:25.028Z,91.09
2023-05-19T04:25:25.023Z,90.99
2023-05-19T04:26:25.113Z,90.99
2023-05-19T04:27:25.168Z,90.57
2023-05-19T04:28:24.960Z,90.99
2023-05-19T04:29:24.975Z,90.94
2023-05-19T04:30:24.935Z,91.15
2023-05-19T04:31:24.965Z,90.94
2023-05-19T04:32:24.951Z,90.94
2023-05-19T04:33:24.904Z,91.00
2023-05-19T04:34:24.907Z,90.90
2023-05-19T04:35:24.898Z,90.90
2023-05-19T04:36:24.869Z,90.69
2023-05-19T04:37:24.857Z,90.45
2023-05-19T04:38:24.840Z,90.18
2023-05-19T04:39:24.840Z,89.73
2023-05-19T04:40:24.989Z,89.42
2023-05-19T04:41:24.827Z,89.31
2023-05-19T04:42:24.816Z,89.52
2023-05-19T04:43:24.801Z,89.69
2023-05-19T04:44:24.784Z,89.69
2023-05-19T04:45:24.787Z,89.69
2023-05-19T04:46:24.773Z,89.44
2023-05-19T04:47:24.769Z,88.82
2023-05-19T04:48:24.725Z,88.31
2023-05-19T04:49:24.727Z,88.62
2023-05-19T04:50:24.738Z,88.00
2023-05-19T04:51:24.698Z,87.59
2023-05-19T04:52:24.686Z,87.34
2023-05-19T04:53:24.677Z,86.42
2023-05-19T04:54:24.658Z,86.72
2023-05-19T04:55:24.676Z,87.24
2023-05-19T04:56:24.679Z,87.75
2023-05-19T04:57:24.645Z,87.61
2023-05-19T04:58:24.610Z,86.79
2023-05-19T04:59:24.602Z,86.17
2023-05-19T05:00:24.594Z,85.97
2023-05-19T05:01:24.651Z,86.03
2023-05-19T05:02:24.684Z,85.11
2023-05-19T05:03:24.696Z,85.21
2023-05-19T05:04:24.544Z,85.21
2023-05-19T05:05:24.553Z,84.14
2023-05-19T05:06:24.521Z,84.34
2023-05-19T05:07:24.532Z,85.58
2023-05-19T05:08:24.486Z,85.44
2023-05-19T05:09:24.481Z,85.33
2023-05-19T05:10:24.487Z,84.61
2023-05-19T05:11:24.463Z,85.44
2023-05-19T05:12:24.476Z,84.37
2023-05-19T05:13:24.468Z,83.45
2023-05-19T05:14:24.444Z,82.56
2023-05-19T05:15:24.420Z,83.18
2023-05-19T05:16:24.457Z,83.07
2023-05-19T05:17:24.461Z,83.28
2023-05-19T05:18:24.380Z,82.56
2023-05-19T05:19:24.402Z,83.45
2023-05-19T05:20:24.370Z,83.25
2023-05-19T05:21:24.366Z,82.93
2023-05-19T05:22:24.330Z,82.49
2023-05-19T05:23:24.333Z,82.08
2023-05-19T05:24:24.312Z,82.32
2023-05-19T05:25:24.310Z,81.57
2023-05-19T05:26:24.312Z,80.27
2023-05-19T05:27:24.281Z,80.33
2023-05-19T05:28:24.282Z,79.72
2023-05-19T05:29:24.250Z,77.87
2023-05-19T05:30:24.235Z,79.14
2023-05-19T05:31:24.260Z,78.08
2023-05-19T05:32:24.795Z,78.28
2023-05-19T05:33:24.384Z,79.21
2023-05-19T05:34:24.195Z,79.21
2023-05-19T05:35:24.185Z,77.98
2023-05-19T05:36:24.192Z,77.77
2023-05-19T05:37:24.160Z,78.28
2023-05-19T05:38:24.154Z,78.49
2023-05-19T05:39:24.137Z,77.67
2023-05-19T05:40:24.142Z,76.75
2023-05-19T05:41:24.148Z,76.95
2023-05-19T05:42:24.123Z,77.87
2023-05-19T05:43:24.134Z,77.73
2023-05-19T05:44:24.173Z,78.45
2023-05-19T05:45:24.085Z,78.86
2023-05-19T05:46:24.081Z,80.09
2023-05-19T05:47:24.045Z,80.16
2023-05-19T05:48:24.085Z,79.75
2023-05-19T05:49:24.042Z,77.56
2023-05-19T05:50:24.018Z,77.67
2023-05-19T05:51:23.999Z,76.75
2023-05-19T05:52:23.994Z,75.42
2023-05-19T05:53:23.976Z,76.71
2023-05-19T05:54:23.989Z,76.20
2023-05-19T05:55:23.960Z,74.87
2023-05-19T05:56:23.958Z,76.20
2023-05-19T05:57:23.956Z,74.56
2023-05-19T05:58:23.925Z,73.54
2023-05-19T05:59:23.919Z,73.54
2023-05-19T06:00:23.938Z,74.35
2023-05-19T06:01:24.001Z,73.64
2023-05-19T06:02:23.929Z,74.26
2023-05-19T06:03:23.966Z,74.39
2023-05-19T06:04:23.868Z,75.01
2023-05-19T06:05:23.910Z,74.08
2023-05-19T06:06:23.842Z,75.07
2023-05-19T06:07:23.854Z,74.66
2023-05-19T06:08:23.820Z,75.89
2023-05-19T06:09:23.817Z,75.89
2023-05-19T06:10:23.832Z,74.97
2023-05-19T06:11:23.769Z,74.97
2023-05-19T06:12:23.772Z,73.74
2023-05-19T06:13:23.785Z,74.26
2023-05-19T06:14:23.744Z,75.65
2023-05-19T06:15:23.752Z,75.65
2023-05-19T06:16:23.806Z,75.65
2023-05-19T06:17:23.705Z,75.55
2023-05-19T06:18:23.702Z,74.22
2023-05-19T06:19:23.775Z,75.51
2023-05-19T06:20:23.690Z,75.51
2023-05-19T06:21:23.702Z,75.62
2023-05-19T06:22:23.673Z,75.00
2023-05-19T06:23:23.652Z,74.29
2023-05-19T06:24:23.651Z,73.54
2023-05-19T06:25:23.617Z,73.94
2023-05-19T06:26:23.609Z,74.15
2023-05-19T06:27:23.592Z,73.30
2023-05-19T06:28:23.610Z,73.30
2023-05-19T06:29:23.570Z,73.54
2023-05-19T06:30:23.558Z,74.11
2023-05-19T06:31:23.552Z,73.88
2023-05-19T06:32:23.628Z,73.40
2023-05-19T06:33:23.780Z,73.60
2023-05-19T06:34:23.521Z,73.67
2023-05-19T06:35:23.540Z,73.27
2023-05-19T06:36:23.519Z,72.34
2023-05-19T06:37:23.478Z,72.96
2023-05-19T06:38:23.476Z,73.57
2023-05-19T06:39:23.464Z,72.45
2023-05-19T06:40:23.452Z,72.04
2023-05-19T06:41:23.570Z,72.79
2023-05-19T06:42:23.715Z,72.24
2023-05-19T06:43:23.427Z,72.55
2023-05-19T06:44:23.402Z,72.75
2023-05-19T06:45:23.440Z,72.31
2023-05-19T06:46:23.534Z,72.62
2023-05-19T06:47:23.405Z,72.52
2023-05-19T06:48:23.415Z,73.23
2023-05-19T06:49:23.342Z,73.60
2023-05-19T06:50:23.351Z,73.10
2023-05-19T06:51:23.347Z,73.50
2023-05-19T06:52:23.313Z,71.33
2023-05-19T06:53:23.289Z,73.02
2023-05-19T06:54:23.292Z,72.52
2023-05-19T06:55:23.318Z,70.86
2023-05-19T06:56:23.286Z,70.01
2023-05-19T06:57:23.249Z,70.18
2023-05-19T06:58:23.255Z,69.53
2023-05-19T06:59:23.259Z,68.72
2023-05-19T07:00:24.147Z,69.09
2023-05-19T07:01:23.242Z,68.66
2023-05-19T07:02:23.224Z,69.74
2023-05-19T07:03:23.230Z,69.57
2023-05-19T07:04:23.193Z,71.88
2023-05-19T07:05:23.219Z,71.03
2023-05-19T07:06:23.172Z,64.61
2023-05-19T07:07:23.172Z,64.51
2023-05-19T07:08:23.226Z,66.74
2023-05-19T07:09:24.044Z,64.21
2023-05-19T07:10:23.212Z,63.27
2023-05-19T07:11:23.252Z,65.39
2023-05-19T07:12:23.158Z,65.47
2023-05-19T07:13:24.801Z,64.55
2023-05-19T07:14:23.067Z,66.07
2023-05-19T07:15:23.046Z,64.73
2023-05-19T07:16:23.097Z,63.08
2023-05-19T07:17:23.049Z,59.51
2023-05-19T07:18:23.025Z,60.42
2023-05-19T07:19:23.108Z,62.51
2023-05-19T07:20:23.027Z,63.73
2023-05-19T07:21:23.016Z,62.88
2023-05-19T07:22:22.968Z,62.68
2023-05-19T07:23:23.434Z,62.96
2023-05-19T07:24:22.943Z,61.04
2023-05-19T07:25:22.981Z,58.01
2023-05-19T07:26:22.960Z,58.42
2023-05-19T07:27:22.938Z,59.22
2023-05-19T07:28:22.950Z,57.03
2023-05-19T07:29:22.879Z,58.78
2023-05-19T07:30:22.877Z,60.57
2023-05-19T07:31:22.945Z,61.77
2023-05-19T07:32:22.953Z,58.65
2023-05-19T07:33:22.967Z,60.60
2023-05-19T07:34:22.822Z,59.89
2023-05-19T07:35:22.836Z,60.60
2023-05-19T07:36:24.258Z,61.91
2023-05-19T07:37:22.804Z,61.07
2023-05-19T07:38:22.783Z,60.16
2023-05-19T07:39:22.800Z,61.57
2023-05-19T07:40:22.811Z,58.85
2023-05-19T07:41:22.754Z,59.18
2023-05-19T07:42:22.752Z,59.41
2023-05-19T07:43:22.728Z,61.23
2023-05-19T07:44:23.369Z,61.46
2023-05-19T07:45:22.722Z,59.54
2023-05-19T07:46:22.802Z,62.30
2023-05-19T07:47:22.671Z,61.11
2023-05-19T07:48:22.661Z,62.43
2023-05-19T07:49:22.654Z,60.00
2023-05-19T07:50:22.673Z,60.00
2023-05-19T07:51:22.630Z,60.61
2023-05-19T07:52:22.680Z,62.84
2023-05-19T07:53:22.692Z,64.96
2023-05-19T07:54:22.595Z,61.39
2023-05-19T07:55:22.613Z,61.39
2023-05-19T07:56:22.592Z,62.10
2023-05-19T07:57:22.591Z,63.68
2023-05-19T07:58:22.577Z,60.42
2023-05-19T07:59:22.556Z,62.14
2023-05-19T08:00:22.546Z,59.11
2023-05-19T08:01:22.539Z,58.00
2023-05-19T08:02:22.717Z,59.58
2023-05-19T08:03:22.691Z,61.23
2023-05-19T08:04:22.531Z,61.80
2023-05-19T08:05:22.488Z,60.16
2023-05-19T08:06:22.484Z,56.65
2023-05-19T08:07:22.451Z,58.98
2023-05-19T08:08:22.512Z,61.20
2023-05-19T08:09:22.439Z,56.76
2023-05-19T08:10:22.422Z,60.80
2023-05-19T08:11:22.418Z,61.17
2023-05-19T08:12:22.507Z,57.56
2023-05-19T08:13:22.369Z,57.49
2023-05-19T08:14:22.383Z,59.00
2023-05-19T08:15:22.399Z,58.43
2023-05-19T08:16:22.487Z,60.27
2023-05-19T08:17:22.375Z,61.59
2023-05-19T08:18:22.324Z,62.07
2023-05-19T08:19:22.422Z,61.25
2023-05-19T08:20:22.312Z,62.27
2023-05-19T08:21:22.297Z,63.28
2023-05-19T08:22:22.332Z,61.83
2023-05-19T08:23:22.284Z,61.23
2023-05-19T08:24:22.286Z,60.32
2023-05-19T08:25:22.253Z,61.33
2023-05-19T08:26:22.235Z,59.71
2023-05-19T08:27:22.222Z,57.18
2023-05-19T08:28:22.233Z,58.40
2023-05-19T08:29:22.200Z,61.00
2023-05-19T08:30:22.186Z,58.58
2023-05-19T08:31:22.322Z,56.96
2023-05-19T08:32:22.252Z,56.10
2023-05-19T08:33:22.212Z,59.36
2023-05-19T08:34:22.146Z,59.47
2023-05-19T08:35:22.151Z,61.39
2023-05-19T08:36:22.128Z,61.16
2023-05-19T08:37:22.119Z,60.02
2023-05-19T08:38:22.115Z,60.52
2023-05-19T08:39:22.085Z,62.31
2023-05-19T08:40:22.107Z,59.05
2023-05-19T08:41:22.087Z,57.67
2023-05-19T08:42:22.169Z,59.38
2023-05-19T08:43:22.045Z,61.73
2023-05-19T08:44:22.033Z,59.89
2023-05-19T08:45:22.019Z,61.10
2023-05-19T08:46:22.052Z,59.56
2023-05-19T08:47:22.027Z,60.46
2023-05-19T08:48:21.986Z,56.52
2023-05-19T08:49:24.183Z,59.66
2023-05-19T08:50:21.969Z,60.24
2023-05-19T08:51:22.437Z,57.08
2023-05-19T08:52:21.953Z,57.38
2023-05-19T08:53:32.456Z,58.29
2023-05-19T08:54:22.917Z,59.93
2023-05-19T08:55:21.913Z,58.92
2023-05-19T08:56:21.911Z,59.33
2023-05-19T08:57:21.872Z,57.31
2023-05-19T08:58:21.867Z,59.60
2023-05-19T08:59:21.866Z,56.77
2023-05-19T09:00:21.889Z,58.29
2023-05-19T09:01:21.856Z,58.87
2023-05-19T09:02:21.845Z,57.08
2023-05-19T09:03:23.874Z,60.31
2023-05-19T09:04:21.890Z,58.49
2023-05-19T09:05:21.842Z,56.98
2023-05-19T09:06:21.793Z,59.47
2023-05-19T09:07:21.755Z,56.95
2023-05-19T09:08:21.751Z,58.56
2023-05-19T09:09:21.731Z,60.28
2023-05-19T09:10:21.752Z,57.63
2023-05-19T09:11:21.730Z,59.01
2023-05-19T09:12:21.734Z,59.82
2023-05-19T09:13:21.684Z,57.43
2023-05-19T09:14:21.729Z,61.29
2023-05-19T09:15:21.667Z,61.76
2023-05-19T09:16:21.719Z,61.08
2023-05-19T09:17:21.668Z,60.48
2023-05-19T09:18:21.660Z,59.77
2023-05-19T09:19:21.686Z,61.82
2023-05-19T09:20:21.616Z,63.64
2023-05-19T09:21:21.610Z,65.52
2023-05-19T09:22:21.591Z,60.98
2023-05-19T09:23:21.569Z,58.76
2023-05-19T09:24:21.593Z,58.69
2023-05-19T09:25:21.572Z,60.10
2023-05-19T09:26:21.546Z,61.04
2023-05-19T09:27:21.548Z,61.82
2023-05-19T09:28:21.562Z,60.00
2023-05-19T09:29:21.509Z,58.80
2023-05-19T09:30:21.511Z,56.98
2023-05-19T09:31:21.491Z,59.83
2023-05-19T09:32:21.553Z,59.86
2023-05-19T09:33:21.497Z,60.64
2023-05-19T09:34:21.480Z,63.16
2023-05-19T09:35:21.448Z,61.72
2023-05-19T09:36:21.440Z,62.02
2023-05-19T09:37:21.413Z,58.87
2023-05-19T09:38:21.410Z,60.25
2023-05-19T09:39:21.427Z,60.15
2023-05-19T09:40:21.395Z,60.05
2023-05-19T09:41:21.366Z,59.04
2023-05-19T09:42:21.381Z,56.75
2023-05-19T09:43:21.341Z,57.68
2023-05-19T09:44:21.470Z,60.44
2023-05-19T09:45:22.481Z,61.95
2023-05-19T09:46:21.338Z,63.06
2023-05-19T09:47:21.355Z,62.65
2023-05-19T09:48:21.291Z,63.06
2023-05-19T09:49:21.298Z,61.61
2023-05-19T09:50:21.263Z,61.32
2023-05-19T09:51:21.277Z,62.52
2023-05-19T09:52:21.275Z,60.41
2023-05-19T09:53:21.235Z,61.82
2023-05-19T09:54:21.238Z,62.40
2023-05-19T09:55:21.225Z,60.38
2023-05-19T09:56:21.195Z,59.70
2023-05-19T09:57:21.194Z,61.01
2023-05-19T09:58:21.173Z,62.12
2023-05-19T09:59:21.188Z,59.09
2023-05-19T10:00:21.177Z,63.03
2023-05-19T10:01:21.220Z,62.80
2023-05-19T10:02:21.136Z,64.21
2023-05-19T10:03:21.148Z,63.07
2023-05-19T10:04:21.107Z,64.69
2023-05-19T10:05:21.137Z,63.34
2023-05-19T10:06:21.116Z,62.61
2023-05-19T10:07:21.097Z,59.69
2023-05-19T10:08:21.057Z,59.28
2023-05-19T10:09:21.071Z,58.68
2023-05-19T10:10:21.040Z,59.28
2023-05-19T10:11:21.048Z,60.35
2023-05-19T10:12:21.027Z,62.37
2023-05-19T10:13:21.023Z,61.18
2023-05-19T10:14:21.019Z,61.89
2023-05-19T10:15:29.894Z,62.26
2023-05-19T10:16:22.080Z,63.14
2023-05-19T10:17:20.960Z,56.70
2023-05-19T10:18:20.966Z,58.01
2023-05-19T10:19:23.864Z,58.11
2023-05-19T10:20:20.938Z,57.12
2023-05-19T10:21:20.945Z,59.04
2023-05-19T10:22:20.903Z,58.97
2023-05-19T10:23:20.923Z,59.57
2023-05-19T10:24:20.875Z,61.96
2023-05-19T10:25:20.881Z,57.53
2023-05-19T10:26:20.850Z,57.93
2023-05-19T10:27:20.850Z,58.84
2023-05-19T10:28:20.850Z,58.74
2023-05-19T10:29:20.854Z,59.37
2023-05-19T10:30:20.812Z,60.58
2023-05-19T10:31:20.832Z,62.46
2023-05-19T10:32:20.911Z,60.55
2023-05-19T10:33:20.850Z,60.98
2023-05-19T10:34:20.765Z,60.15
2023-05-19T10:35:20.784Z,62.66
2023-05-19T10:36:20.740Z,60.45
2023-05-19T10:37:20.735Z,60.35
2023-05-19T10:38:20.746Z,60.45
2023-05-19T10:39:20.712Z,59.95
2023-05-19T10:40:20.693Z,58.56
2023-05-19T10:41:20.691Z,58.36
2023-05-19T10:42:20.674Z,61.29
2023-05-19T10:43:20.690Z,59.80
2023-05-19T10:44:20.652Z,60.10
2023-05-19T10:45:20.656Z,59.83
2023-05-19T10:46:20.683Z,61.35
2023-05-19T10:47:20.671Z,62.35
2023-05-19T10:48:20.654Z,61.88
2023-05-19T10:49:20.598Z,62.68
2023-05-19T10:50:20.604Z,60.66
2023-05-19T10:51:20.592Z,61.37
2023-05-19T10:52:20.562Z,62.41
2023-05-19T10:53:20.555Z,62.71
2023-05-19T10:54:20.543Z,63.09
2023-05-19T10:55:20.556Z,66.22
2023-05-19T10:56:20.518Z,62.43
2023-05-19T10:57:20.547Z,62.02
2023-05-19T10:58:20.491Z,62.40
2023-05-19T10:59:20.492Z,61.93
2023-05-19T11:00:20.468Z,58.91
2023-05-19T11:01:20.475Z,60.29
2023-05-19T11:02:20.581Z,62.51
2023-05-19T11:03:20.451Z,59.86
2023-05-19T11:04:20.479Z,57.65
2023-05-19T11:05:20.445Z,56.82
2023-05-19T11:06:20.404Z,57.12
2023-05-19T11:07:20.423Z,59.30
2023-05-19T11:08:20.416Z,55.91
2023-05-19T11:09:31.099Z,55.41
2023-05-19T11:10:21.623Z,55.61
2023-05-19T11:11:20.352Z,56.51
2023-05-19T11:12:20.341Z,55.00
2023-05-19T11:13:20.360Z,55.54
2023-05-19T11:14:20.315Z,56.77
2023-05-19T11:15:20.318Z,60.60
2023-05-19T11:16:20.301Z,55.63
2023-05-19T11:17:20.300Z,58.15
2023-05-19T11:18:20.272Z,59.63
2023-05-19T11:19:20.337Z,57.59
2023-05-19T11:20:20.264Z,55.21
2023-05-19T11:21:20.312Z,56.21
2023-05-19T11:22:20.220Z,57.82
2023-05-19T11:23:20.294Z,55.41
2023-05-19T11:24:20.208Z,56.79
2023-05-19T11:25:20.192Z,56.11
2023-05-19T11:26:20.200Z,56.71
2023-05-19T11:27:20.217Z,57.12
2023-05-19T11:28:20.291Z,58.73
2023-05-19T11:29:20.155Z,57.12
2023-05-19T11:30:20.276Z,59.10
2023-05-19T11:31:20.141Z,56.89
2023-05-19T11:32:20.247Z,56.46
2023-05-19T11:33:20.201Z,57.06
2023-05-19T11:34:20.083Z,53.55
2023-05-19T11:35:20.078Z,55.48
2023-05-19T11:36:20.151Z,53.90
2023-05-19T11:37:20.052Z,54.00
2023-05-19T11:38:20.054Z,55.23
2023-05-19T11:39:20.068Z,55.66
2023-05-19T11:40:20.018Z,57.00
2023-05-19T11:41:20.882Z,58.58
2023-05-19T11:42:20.002Z,57.48
2023-05-19T11:43:19.986Z,57.28
2023-05-19T11:44:19.966Z,56.24
2023-05-19T11:45:19.983Z,57.07
2023-05-19T11:46:20.025Z,56.16
2023-05-19T11:47:19.941Z,57.30
2023-05-19T11:48:19.948Z,57.60
2023-05-19T11:49:19.927Z,57.10
2023-05-19T11:50:19.922Z,58.44
2023-05-19T11:51:19.914Z,56.42
2023-05-19T11:52:20.441Z,56.42
2023-05-19T11:53:20.117Z,58.74
2023-05-19T11:54:19.904Z,57.12
2023-05-19T11:55:19.887Z,56.55
2023-05-19T11:56:22.402Z,58.34
2023-05-19T11:57:19.846Z,61.60
2023-05-19T11:58:19.811Z,56.54
2023-05-19T11:59:19.814Z,57.72
2023-05-19T12:00:19.784Z,56.89
2023-05-19T12:01:19.793Z,54.08
2023-05-19T12:02:19.827Z,55.88
2023-05-19T12:03:19.810Z,55.58
2023-05-19T12:04:19.735Z,56.69
2023-05-19T12:05:19.808Z,56.79
2023-05-19T12:06:19.823Z,57.09
2023-05-19T12:07:19.712Z,55.79
2023-05-19T12:08:19.711Z,55.79
2023-05-19T12:09:19.688Z,56.79
2023-05-19T12:10:19.689Z,54.78
2023-05-19T12:11:20.116Z,56.62
2023-05-19T12:12:19.690Z,56.67
2023-05-19T12:13:19.660Z,57.57
2023-05-19T12:14:19.628Z,57.17
2023-05-19T12:15:19.648Z,57.57
2023-05-19T12:16:19.665Z,57.57
2023-05-19T12:17:19.599Z,57.28
2023-05-19T12:18:19.580Z,58.95
2023-05-19T12:19:19.628Z,57.55
2023-05-19T12:20:19.586Z,58.75
2023-05-19T12:21:19.553Z,56.71
2023-05-19T12:22:19.540Z,58.12
2023-05-19T12:23:19.552Z,59.13
2023-05-19T12:24:19.551Z,56.71
2023-05-19T12:25:19.547Z,56.31
2023-05-19T12:26:19.485Z,56.34
2023-05-19T12:27:19.518Z,59.08
2023-05-19T12:28:19.489Z,57.07
2023-05-19T12:29:19.457Z,57.40
2023-05-19T12:30:19.446Z,57.63
2023-05-19T12:31:19.477Z,59.62
2023-05-19T12:32:19.463Z,58.78
2023-05-19T12:33:19.419Z,58.58
2023-05-19T12:34:19.414Z,60.39
2023-05-19T12:35:19.390Z,59.66
2023-05-19T12:36:19.387Z,58.53
2023-05-19T12:37:19.388Z,58.50
2023-05-19T12:38:19.359Z,57.70
2023-05-19T12:39:20.160Z,59.00
2023-05-19T12:40:19.354Z,56.79
2023-05-19T12:41:19.323Z,57.82
2023-05-19T12:42:19.304Z,57.32
2023-05-19T12:43:19.453Z,59.36
2023-05-19T12:44:19.304Z,59.94
2023-05-19T12:45:19.304Z,60.77
2023-05-19T12:46:19.318Z,59.76
2023-05-19T12:47:19.268Z,59.99
2023-05-19T12:48:19.289Z,59.99
2023-05-19T12:49:19.232Z,61.60
2023-05-19T12:50:19.253Z,64.12
2023-05-19T12:51:19.215Z,61.77
2023-05-19T12:52:19.199Z,62.98